Time;durP1;ratioP1;P1;durP2;ratioP2;P2;SDS_P1;SDS_P2;PMS_P1;PMS_P2;Temp;Humidity;BMP_temperature;BMP_pressure;BME280_temperature;BME280_humidity;BME280_pressure;Samples;Min_cycle;Max_cycle;Signal;HPM_P1;HPM_P2
2023/09/20 00:01:25;;;;;;;12.30;2.90;;;22.40;49.30;;;;;;5012008;28;20397;-50
2023/09/20 00:03:51;;;;;;;9.38;3.15;;;22.40;48.80;;;;;;5011879;28;20064;-56
2023/09/20 00:06:17;;;;;;;7.88;2.60;;;22.40;48.70;;;;;;5013580;28;20424;-52
2023/09/20 00:08:43;;;;;;;9.43;3.03;;;22.40;49.10;;;;;;5012673;28;20022;-55
2023/09/20 00:11:15;;;;;;;10.30;2.47;;;22.40;48.90;;;;;;5012553;28;20025;-55
2023/09/20 00:13:44;;;;;;;9.25;2.83;;;22.40;49.10;;;;;;5012155;28;20114;-56
2023/09/20 00:16:10;;;;;;;8.23;2.50;;;22.40;49.20;;;;;;5012660;28;20501;-54
2023/09/20 00:18:36;;;;;;;8.13;2.75;;;22.40;49.00;;;;;;5013099;28;20045;-56
2023/09/20 00:21:02;;;;;;;12.25;3.13;;;22.30;49.30;;;;;;5012178;28;20040;-57
2023/09/20 00:23:29;;;;;;;7.38;2.70;;;22.30;49.30;;;;;;5011718;28;20038;-54
2023/09/20 00:25:56;;;;;;;7.47;2.53;;;22.40;49.10;;;;;;5012778;28;20084;-55
2023/09/20 00:28:21;;;;;;;8.15;2.80;;;22.30;49.00;;;;;;5012860;28;20053;-55
2023/09/20 00:30:47;;;;;;;12.77;3.05;;;22.30;49.10;;;;;;5011617;28;20026;-56
2023/09/20 00:33:14;;;;;;;6.47;2.47;;;22.30;49.20;;;;;;5012074;28;20022;-56
2023/09/20 00:35:40;;;;;;;8.77;2.50;;;22.30;49.00;;;;;;5011478;28;20117;-57
2023/09/20 00:38:07;;;;;;;12.07;2.92;;;22.30;49.00;;;;;;5011642;28;20105;-55
2023/09/20 00:40:35;;;;;;;9.02;3.00;;;22.30;49.10;;;;;;5011816;28;20449;-56
2023/09/20 00:43:04;;;;;;;8.10;2.78;;;22.30;49.10;;;;;;5012656;28;20022;-54
2023/09/20 00:45:30;;;;;;;11.18;2.58;;;22.30;49.10;;;;;;5012962;28;20034;-55
2023/09/20 00:47:58;;;;;;;7.53;2.80;;;22.30;48.90;;;;;;5012694;28;20022;-56
2023/09/20 00:50:31;;;;;;;7.53;2.75;;;22.30;49.00;;;;;;5010655;28;20022;-55
2023/09/20 00:52:58;;;;;;;10.98;3.13;;;22.30;49.20;;;;;;5012380;28;20485;-54
2023/09/20 00:55:32;;;;;;;11.32;2.97;;;22.30;49.00;;;;;;5012268;28;20026;-56
2023/09/20 00:58:04;;;;;;;9.15;3.00;;;22.30;49.00;;;;;;5004863;28;20018;-56
2023/09/20 01:00:32;;;;;;;9.98;2.92;;;22.30;49.10;;;;;;5008114;28;20518;-56
2023/09/20 01:03:00;;;;;;;9.40;2.63;;;22.30;49.20;;;;;;5011148;28;20025;-56
2023/09/20 01:05:34;;;;;;;8.23;2.47;;;22.30;49.10;;;;;;5010633;28;20485;-54
2023/09/20 01:08:01;;;;;;;8.45;2.58;;;22.30;49.00;;;;;;5004177;28;20029;-56
2023/09/20 01:10:31;;;;;;;9.95;2.80;;;22.30;49.20;;;;;;5011419;28;20075;-54
2023/09/20 01:12:57;;;;;;;;;;;22.20;49.50;;;;;;5011425;28;20105;-55
2023/09/20 01:15:24;;;;;;;16.55;2.75;;;22.20;49.40;;;;;;5011504;28;19917;-56
2023/09/20 01:17:58;;;;;;;7.18;2.30;;;22.20;49.50;;;;;;5012352;28;20026;-54
2023/09/20 01:20:32;;;;;;;8.88;2.85;;;22.20;49.40;;;;;;5011555;28;20120;-54
2023/09/20 01:22:59;;;;;;;8.55;2.88;;;22.10;49.20;;;;;;5002486;28;20022;-56
2023/09/20 01:25:35;;;;;;;7.22;2.65;;;22.20;49.50;;;;;;5011056;28;20034;-54
2023/09/20 01:28:03;;;;;;;5.63;2.58;;;22.10;49.40;;;;;;5003214;28;20026;-56
2023/09/20 01:30:31;;;;;;;8.93;2.58;;;22.10;49.60;;;;;;5009698;28;20029;-54
2023/09/20 01:32:59;;;;;;;7.90;2.78;;;22.20;49.50;;;;;;5011594;28;20022;-56
2023/09/20 01:35:27;;;;;;;10.27;2.60;;;22.10;49.70;;;;;;5010539;28;20057;-56
2023/09/20 01:37:53;;;;;;;9.65;2.70;;;22.20;49.60;;;;;;5010947;28;20052;-55
2023/09/20 01:40:19;;;;;;;9.40;2.45;;;22.10;49.50;;;;;;5009733;28;20509;-55
2023/09/20 01:42:47;;;;;;;9.43;3.10;;;22.20;49.80;;;;;;5009347;28;20032;-56
2023/09/20 01:45:15;;;;;;;7.88;2.70;;;22.10;49.90;;;;;;5010711;28;20026;-51
2023/09/20 01:47:49;;;;;;;9.05;2.83;;;22.10;49.80;;;;;;5011223;28;20433;-53
2023/09/20 01:50:20;;;;;;;9.45;2.65;;;22.10;49.80;;;;;;5010900;28;20029;-56
2023/09/20 01:52:50;;;;;;;8.10;2.90;;;22.10;49.70;;;;;;5009379;28;20397;-54
2023/09/20 01:55:20;;;;;;;9.77;2.83;;;22.10;49.70;;;;;;5009161;28;20080;-55
2023/09/20 01:57:47;;;;;;;7.63;2.75;;;22.10;49.90;;;;;;5010543;28;20068;-53
2023/09/20 02:00:25;;;;;;;8.70;2.80;;;22.00;49.90;;;;;;5010187;28;20492;-55
2023/09/20 02:03:07;;;;;;;11.65;2.95;;;22.00;49.90;;;;;;5009964;28;20034;-53
2023/09/20 02:05:36;;;;;;;7.97;2.80;;;22.00;50.10;;;;;;5009725;28;20037;-54
2023/09/20 02:08:03;;;;;;;8.85;2.88;;;22.00;50.10;;;;;;5010431;28;20050;-50
2023/09/20 02:10:30;;;;;;;9.82;3.25;;;22.00;49.90;;;;;;5008867;28;20567;-52
2023/09/20 02:12:56;;;;;;;17.02;3.78;;;22.00;50.00;;;;;;5002270;28;20385;-54
2023/09/20 02:15:26;;;;;;;11.48;3.50;;;22.00;50.30;;;;;;5009525;28;20034;-54
2023/09/20 02:17:53;;;;;;;9.82;3.55;;;22.00;50.40;;;;;;5011256;28;20096;-56
2023/09/20 02:20:20;;;;;;;9.13;3.30;;;22.00;50.30;;;;;;5010519;28;20088;-53
2023/09/20 02:22:50;;;;;;;12.10;2.95;;;22.00;50.10;;;;;;5009981;28;20080;-56
2023/09/20 02:25:20;;;;;;;10.00;2.95;;;22.00;50.20;;;;;;5009352;28;20454;-56
2023/09/20 02:27:50;;;;;;;8.77;2.80;;;22.00;50.30;;;;;;5010183;28;20025;-51
2023/09/20 02:30:24;;;;;;;9.55;2.85;;;22.00;50.90;;;;;;5019454;28;20022;-56
2023/09/20 02:32:57;;;;;;;10.50;2.70;;;22.00;50.50;;;;;;5010794;28;20038;-51
2023/09/20 02:35:25;;;;;;;7.72;2.80;;;21.90;50.60;;;;;;5010622;28;20077;-55
2023/09/20 02:37:52;;;;;;;8.30;2.88;;;21.90;50.40;;;;;;5010331;28;20728;-55
2023/09/20 02:40:23;;;;;;;9.30;2.40;;;21.90;50.50;;;;;;5009086;28;20038;-55
2023/09/20 02:42:54;;;;;;;7.75;2.95;;;21.90;50.70;;;;;;5008578;28;20059;-54
2023/09/20 02:45:24;;;;;;;7.38;2.50;;;21.90;50.50;;;;;;5009643;28;20026;-54
2023/09/20 02:47:51;;;;;;;7.18;2.53;;;21.90;50.90;;;;;;5009259;28;20413;-53
2023/09/20 02:50:22;;;;;;;6.03;2.58;;;22.00;50.70;;;;;;5009078;28;20034;-52
2023/09/20 02:52:49;;;;;;;7.85;2.40;;;22.00;50.70;;;;;;5009105;28;20034;-53
2023/09/20 02:55:17;;;;;;;6.68;2.50;;;21.90;50.80;;;;;;5009035;28;20022;-54
2023/09/20 02:57:44;;;;;;;6.38;2.58;;;21.90;50.80;;;;;;5009172;28;20406;-56
2023/09/20 03:00:16;;;;;;;7.72;2.45;;;22.00;50.70;;;;;;5011258;28;20064;-56
2023/09/20 03:02:45;;;;;;;5.32;2.55;;;21.90;50.90;;;;;;5012857;28;20493;-55
2023/09/20 03:05:23;;;;;;;10.90;2.85;;;21.90;50.80;;;;;;5012651;28;20410;-56
2023/09/20 03:07:51;;;;;;;10.90;2.75;;;22.00;50.90;;;;;;5014444;28;20032;-55
2023/09/20 03:10:21;;;;;;;7.68;2.90;;;21.90;50.90;;;;;;5013714;28;20029;-56
2023/09/20 03:12:52;;;;;;;8.77;2.85;;;21.90;50.90;;;;;;5013085;28;20037;-56
2023/09/20 03:15:23;;;;;;;8.38;2.88;;;21.90;51.00;;;;;;5012529;28;20058;-55
2023/09/20 03:17:52;;;;;;;8.77;2.30;;;21.90;51.10;;;;;;5012278;28;20052;-56
2023/09/20 03:20:26;;;;;;;8.32;2.67;;;21.90;51.10;;;;;;5009620;28;20038;-55
2023/09/20 03:22:58;;;;;;;7.53;2.45;;;21.90;51.30;;;;;;5012229;28;20029;-57
2023/09/20 03:25:28;;;;;;;6.50;2.20;;;21.90;51.20;;;;;;5012255;28;20037;-55
2023/09/20 03:27:56;;;;;;;6.55;2.50;;;21.90;51.30;;;;;;5011692;28;20025;-55
2023/09/20 03:30:22;;;;;;;7.13;2.40;;;21.90;51.50;;;;;;5010978;28;20508;-56
2023/09/20 03:32:50;;;;;;;10.43;2.70;;;21.90;51.40;;;;;;5011681;28;20032;-56
2023/09/20 03:35:19;;;;;;;9.05;2.80;;;21.90;51.50;;;;;;5011893;28;20025;-56
2023/09/20 03:37:46;;;;;;;;;;;21.90;51.50;;;;;;5012448;28;20034;-56
2023/09/20 03:40:17;;;;;;;9.07;2.78;;;21.80;51.60;;;;;;5011761;28;20048;-51
2023/09/20 03:42:44;;;;;;;5.60;2.33;;;21.90;51.60;;;;;;5011705;28;20038;-56
2023/09/20 03:45:14;;;;;;;5.68;2.33;;;21.90;51.80;;;;;;5011604;28;20432;-55
2023/09/20 03:47:41;;;;;;;5.95;2.53;;;21.90;51.70;;;;;;5011790;28;20098;-56
2023/09/20 03:50:09;;;;;;;9.85;2.88;;;21.90;51.80;;;;;;5011741;28;20022;-56
2023/09/20 03:52:42;;;;;;;7.65;2.60;;;21.90;51.70;;;;;;5012215;28;20026;-53
2023/09/20 03:55:08;;;;;;;10.90;2.97;;;21.90;51.70;;;;;;5013450;28;20165;-57
2023/09/20 03:57:34;;;;;;;7.53;2.60;;;21.80;51.80;;;;;;5012836;28;20030;-56
2023/09/20 04:00:06;;;;;;;7.50;2.55;;;21.80;52.00;;;;;;5011459;28;20064;-56
2023/09/20 04:02:39;;;;;;;8.48;2.33;;;21.80;52.20;;;;;;5011729;28;20429;-54
2023/09/20 04:05:13;;;;;;;5.60;2.08;;;21.80;52.10;;;;;;5011541;28;20038;-56
2023/09/20 04:07:44;;;;;;;6.72;2.50;;;21.80;52.20;;;;;;5011233;28;20105;-55
2023/09/20 04:10:10;;;;;;;7.90;2.65;;;21.80;52.10;;;;;;5010843;28;20548;-55
2023/09/20 04:12:36;;;;;;;8.10;2.65;;;21.80;52.30;;;;;;5013140;28;20022;-52
2023/09/20 04:15:07;;;;;;;8.85;2.20;;;21.80;52.30;;;;;;5010927;28;20033;-56
2023/09/20 04:17:35;;;;;;;6.93;2.50;;;21.80;52.30;;;;;;5013163;28;20030;-56
2023/09/20 04:20:04;;;;;;;9.80;2.53;;;21.80;52.50;;;;;;5012152;28;20026;-55
2023/09/20 04:22:31;;;;;;;;;;;21.80;52.40;;;;;;5011587;28;20129;-56
2023/09/20 04:24:58;;;;;;;7.38;3.15;;;21.70;52.40;;;;;;5011063;28;20369;-56
2023/09/20 04:27:24;;;;;;;11.05;4.20;;;21.80;52.70;;;;;;5013120;28;20026;-49
2023/09/20 04:29:49;;;;;;;14.23;6.35;;;21.70;52.60;;;;;;5012256;28;20018;-53
2023/09/20 04:32:17;;;;;;;15.43;7.32;;;21.70;52.60;;;;;;5011783;28;20044;-50
2023/09/20 04:34:44;;;;;;;13.38;5.55;;;21.70;52.70;;;;;;5010389;28;20489;-50
2023/09/20 04:37:12;;;;;;;10.15;4.90;;;21.70;52.60;;;;;;5009974;28;20041;-52
2023/09/20 04:39:39;;;;;;;11.85;3.92;;;21.70;52.80;;;;;;5010390;28;20563;-50
2023/09/20 04:42:07;;;;;;;13.20;3.65;;;21.70;53.00;;;;;;5010868;28;20030;-52
2023/09/20 04:44:33;;;;;;;10.27;3.70;;;21.70;52.90;;;;;;5010262;28;20033;-56
2023/09/20 04:46:59;;;;;;;14.35;4.03;;;21.60;53.10;;;;;;5010990;28;20049;-50
2023/09/20 04:49:26;;;;;;;11.88;4.50;;;21.70;53.10;;;;;;5010669;28;20489;-52
2023/09/20 04:51:53;;;;;;;11.07;5.05;;;21.70;53.20;;;;;;5010577;28;20033;-54
2023/09/20 04:54:21;;;;;;;10.95;4.88;;;21.70;53.20;;;;;;5010009;28;20474;-49
2023/09/20 04:56:47;;;;;;;8.90;3.80;;;21.70;53.30;;;;;;5011214;28;20022;-56
2023/09/20 04:59:14;;;;;;;7.63;3.65;;;21.70;53.50;;;;;;5011076;28;20030;-56
2023/09/20 05:01:44;;;;;;;11.60;3.40;;;21.70;53.50;;;;;;5009425;28;20025;-56
2023/09/20 05:04:13;;;;;;;7.10;2.63;;;21.70;53.60;;;;;;5007059;28;20018;-56
2023/09/20 05:06:42;;;;;;;8.50;3.23;;;21.70;53.70;;;;;;5009482;28;20452;-55
2023/09/20 05:09:12;;;;;;;7.28;2.70;;;21.70;53.80;;;;;;5009852;28;20320;-54
2023/09/20 05:11:38;;;;;;;16.73;8.50;;;21.70;53.90;;;;;;5027017;28;20125;-56
2023/09/20 05:14:07;;;;;;;16.92;7.90;;;21.70;54.00;;;;;;5009956;28;20085;-56
2023/09/20 05:16:35;;;;;;;10.23;5.38;;;21.70;54.00;;;;;;5011028;28;20030;-56
2023/09/20 05:19:01;;;;;;;7.72;3.92;;;21.70;54.00;;;;;;5009832;28;20022;-54
2023/09/20 05:21:28;;;;;;;13.00;5.13;;;21.60;54.00;;;;;;5010216;28;20030;-55
2023/09/20 05:23:54;;;;;;;13.25;6.05;;;21.60;54.10;;;;;;5010267;28;20033;-56
2023/09/20 05:26:21;;;;;;;14.60;5.00;;;21.60;54.20;;;;;;5026038;28;20034;-54
2023/09/20 05:28:47;;;;;;;13.55;4.75;;;21.60;54.30;;;;;;5010814;28;20029;-53
2023/09/20 05:31:16;;;;;;;12.07;4.00;;;21.60;54.30;;;;;;5011707;28;20030;-56
2023/09/20 05:33:42;;;;;;;9.20;3.60;;;21.60;54.30;;;;;;5011442;28;20117;-54
2023/09/20 05:36:08;;;;;;;9.18;3.40;;;21.60;54.40;;;;;;5010055;28;20104;-54
2023/09/20 05:38:34;;;;;;;8.02;2.65;;;21.60;54.50;;;;;;5011622;28;20120;-56
2023/09/20 05:41:00;;;;;;;11.93;3.28;;;21.60;54.40;;;;;;5008412;28;20026;-54
2023/09/20 05:43:26;;;;;;;11.82;2.58;;;21.60;54.50;;;;;;5011470;28;20028;-56
2023/09/20 05:45:51;;;;;;;12.80;2.75;;;21.60;54.70;;;;;;5011317;28;20444;-55
2023/09/20 05:48:17;;;;;;;11.15;2.67;;;21.60;54.80;;;;;;5011675;28;20030;-56
2023/09/20 05:50:43;;;;;;;5.70;2.53;;;21.70;54.90;;;;;;5011257;28;20021;-49
2023/09/20 05:53:12;;;;;;;8.65;2.72;;;21.60;55.00;;;;;;5011357;28;20029;-56
2023/09/20 05:55:38;;;;;;;9.77;2.53;;;21.60;55.00;;;;;;5011317;28;20053;-56
2023/09/20 05:58:05;;;;;;;10.15;2.90;;;21.70;54.90;;;;;;5011529;28;20512;-51
2023/09/20 06:00:31;;;;;;;7.10;2.40;;;21.70;55.10;;;;;;5011358;28;20457;-54
2023/09/20 06:02:58;;;;;;;10.45;2.58;;;21.70;55.30;;;;;;5010851;28;20106;-56
2023/09/20 06:05:25;;;;;;;13.45;2.63;;;21.70;55.20;;;;;;5011185;28;20021;-52
2023/09/20 06:07:53;;;;;;;13.30;3.08;;;21.70;55.10;;;;;;5011233;28;20080;-55
2023/09/20 06:10:20;;;;;;;11.25;3.72;;;21.70;55.30;;;;;;5011344;28;20456;-52
2023/09/20 06:12:46;;;;;;;13.18;4.93;;;21.70;55.30;;;;;;5011307;28;20037;-54
2023/09/20 06:15:13;;;;;;;13.65;4.78;;;21.70;55.60;;;;;;5007992;28;20113;-51
2023/09/20 06:17:40;;;;;;;13.32;4.45;;;21.70;55.90;;;;;;5011363;28;20029;-54
2023/09/20 06:20:12;;;;;;;13.85;4.47;;;21.60;55.80;;;;;;5011221;28;20034;-54
2023/09/20 06:22:39;;;;;;;33.33;3.97;;;21.60;55.80;;;;;;5011294;28;20034;-56
2023/09/20 21:09:46;;;;;;;12.25;5.60;;;22.30;61.70;;;;;;5158879;27;20780;-51
2023/09/20 21:12:12;;;;;;;11.73;6.00;;;22.50;62.10;;;;;;5167099;27;20037;-52
2023/09/20 21:14:38;;;;;;;11.48;5.80;;;22.50;62.10;;;;;;5166636;27;20030;-52
2023/09/20 21:17:04;;;;;;;14.07;5.30;;;22.50;61.80;;;;;;5157887;27;20080;-48
2023/09/20 21:19:30;;;;;;;8.50;5.20;;;22.50;61.80;;;;;;5148063;27;20071;-52
2023/09/20 21:21:56;;;;;;;11.55;5.53;;;22.50;61.80;;;;;;5180016;22;20054;-54
2023/09/20 21:24:22;;;;;;;12.52;5.15;;;22.50;61.80;;;;;;5131891;27;20031;-53
2023/09/20 21:26:48;;;;;;;10.65;5.63;;;22.50;61.80;;;;;;5151145;27;20068;-52
2023/09/20 21:29:14;;;;;;;9.98;5.72;;;22.50;62.00;;;;;;5165997;27;20026;-54
2023/09/20 21:31:42;;;;;;;12.25;5.90;;;22.50;61.70;;;;;;5167451;27;20034;-52
2023/09/20 21:34:08;;;;;;;9.82;5.00;;;22.50;61.70;;;;;;5167379;27;20023;-46
2023/09/20 21:36:34;;;;;;;11.15;5.45;;;22.50;62.50;;;;;;5170785;27;20031;-51
2023/09/20 21:39:00;;;;;;;9.15;5.55;;;22.50;62.20;;;;;;5170398;27;20030;-50
2023/09/20 21:41:26;;;;;;;9.05;4.90;;;22.50;61.80;;;;;;5170554;27;20049;-52
2023/09/20 21:43:53;;;;;;;12.60;5.40;;;22.50;62.20;;;;;;5170733;27;20373;-52
2023/09/20 21:46:18;;;;;;;8.20;4.95;;;22.50;62.30;;;;;;5170876;27;20033;-50
2023/09/20 21:48:46;;;;;;;11.40;5.00;;;22.40;61.90;;;;;;5170333;27;20030;-54
2023/09/20 21:51:12;;;;;;;10.45;5.10;;;22.40;61.80;;;;;;5170551;27;20026;-52
2023/09/20 21:53:40;;;;;;;9.32;4.75;;;22.40;61.90;;;;;;5170477;27;20033;-54
2023/09/20 21:56:08;;;;;;;14.50;5.22;;;22.50;62.40;;;;;;5170391;27;20030;-54
2023/09/20 21:58:33;;;;;;;12.15;5.10;;;22.40;62.20;;;;;;5169861;27;20058;-52
2023/09/20 22:00:59;;;;;;;12.25;5.38;;;22.40;62.20;;;;;;5151625;27;20050;-51
2023/09/20 22:03:27;;;;;;;9.98;5.15;;;22.40;61.80;;;;;;5170248;27;20034;-54
2023/09/20 22:05:53;;;;;;;19.85;5.32;;;22.40;62.20;;;;;;5170536;27;20026;-48
2023/09/20 22:08:21;;;;;;;10.57;4.97;;;22.50;62.40;;;;;;5169933;27;20245;-52
2023/09/20 22:10:50;;;;;;;10.63;5.32;;;22.40;61.90;;;;;;5156018;27;20030;-49
2023/09/20 22:13:16;;;;;;;10.75;4.80;;;22.40;62.40;;;;;;5156105;27;20026;-50
2023/09/20 22:15:44;;;;;;;9.30;4.93;;;22.40;62.30;;;;;;5156080;27;20023;-54
2023/09/20 22:20:43;;;;;;;9.73;5.07;;;22.40;61.90;;;;;;5155980;27;20501;-49
2023/09/20 22:23:11;;;;;;;11.75;5.15;;;22.40;61.90;;;;;;5156039;27;20019;-54
2023/09/20 22:25:38;;;;;;;7.78;4.43;;;22.40;61.80;;;;;;5155851;27;20034;-54
2023/09/20 22:28:04;;;;;;;9.80;4.47;;;22.40;61.90;;;;;;5155622;27;20095;-54
2023/09/20 22:30:30;;;;;;;13.55;5.50;;;22.40;62.00;;;;;;5155790;27;20485;-51
2023/09/20 22:32:57;;;;;;;10.77;5.00;;;22.40;62.00;;;;;;5155839;27;20031;-54
2023/09/20 22:35:23;;;;;;;8.32;4.70;;;22.40;61.90;;;;;;5155135;27;20023;-53
2023/09/20 22:37:53;;;;;;;12.90;4.78;;;22.40;62.00;;;;;;5134682;27;20517;-50
2023/09/20 22:40:20;;;;;;;12.02;4.88;;;22.40;62.00;;;;;;5134946;27;20039;-52
2023/09/20 22:42:51;;;;;;;11.20;4.80;;;22.40;62.60;;;;;;5134766;27;20027;-50
2023/09/20 22:47:48;;;;;;;10.00;4.65;;;22.40;62.00;;;;;;5134390;27;20038;-51
2023/09/20 22:50:16;;;;;;;10.82;5.07;;;22.40;62.00;;;;;;5134879;27;20046;-49
2023/09/20 22:52:45;;;;;;;10.57;4.78;;;22.40;62.20;;;;;;5134762;27;20098;-52
2023/09/20 22:55:13;;;;;;;16.23;5.20;;;22.40;62.00;;;;;;5134586;27;20035;-49
2023/09/20 22:57:40;;;;;;;13.57;4.85;;;22.40;62.80;;;;;;5134493;27;20035;-49
2023/09/20 23:00:12;;;;;;;11.57;4.55;;;22.40;62.10;;;;;;5134337;27;20379;-47
2023/09/20 23:02:41;;;;;;;10.55;4.45;;;22.40;62.10;;;;;;5134556;27;20015;-52
2023/09/20 23:05:12;;;;;;;10.73;4.18;;;22.40;62.20;;;;;;5134441;27;20020;-52
2023/09/20 23:07:49;;;;;;;8.05;4.38;;;22.40;62.30;;;;;;5134499;27;20388;-50
2023/09/20 23:10:25;;;;;;;9.80;4.85;;;22.40;62.30;;;;;;5134253;27;20473;-52
2023/09/20 23:12:52;;;;;;;11.60;4.10;;;22.40;62.10;;;;;;5134397;27;20034;-52
2023/09/20 23:15:22;;;;;;;8.45;4.28;;;22.40;62.00;;;;;;5134380;27;20027;-53
2023/09/20 23:17:56;;;;;;;11.15;4.40;;;22.40;62.20;;;;;;5134136;27;20556;-48
2023/09/20 23:20:30;;;;;;;9.30;5.13;;;22.40;62.00;;;;;;5133703;27;20051;-50
2023/09/20 23:23:00;;;;;;;10.70;4.60;;;22.40;61.90;;;;;;5133792;27;20076;-52
2023/09/20 23:25:44;;;;;;;;;;;22.40;62.10;;;;;;5134483;27;20482;-50
2023/09/20 23:28:12;;;;;;;8.23;4.00;;;22.40;62.10;;;;;;5133907;27;20362;-51
2023/09/20 23:30:40;;;;;;;13.30;4.40;;;22.40;62.00;;;;;;5134109;27;20486;-50
2023/09/20 23:33:16;;;;;;;8.15;4.22;;;22.40;62.00;;;;;;5134212;27;20062;-49
2023/09/20 23:35:56;;;;;;;12.10;4.50;;;22.40;62.00;;;;;;5134258;27;20027;-47
2023/09/20 23:38:28;;;;;;;9.88;4.28;;;22.40;62.00;;;;;;5133964;27;20249;-54
2023/09/20 23:41:13;;;;;;;7.07;3.67;;;22.40;61.90;;;;;;5133998;27;20114;-55
2023/09/20 23:43:40;;;;;;;7.43;3.90;;;22.40;62.00;;;;;;5134200;27;20035;-56
2023/09/20 23:46:09;;;;;;;8.48;4.18;;;22.40;62.00;;;;;;5133718;27;20027;-55
2023/09/20 23:48:37;;;;;;;9.07;3.90;;;22.50;62.00;;;;;;5115604;27;20023;-55
2023/09/20 23:51:07;;;;;;;8.20;3.90;;;22.40;62.00;;;;;;5133638;27;20027;-55
2023/09/20 23:53:39;;;;;;;8.80;3.67;;;22.50;62.00;;;;;;5133555;27;20114;-55
2023/09/20 23:56:06;;;;;;;8.52;3.92;;;22.40;62.00;;;;;;5133481;27;20058;-49
2023/09/20 23:58:36;;;;;;;10.43;3.97;;;22.50;62.00;;;;;;5132980;27;20035;-52
